sensor_id;sensor_type;location;lat;lon;timestamp;pressure;altitude;pressure_sealevel;temperature;humidity
11750;BME280;5932;42.656;23.236;2022-08-19T00:01:48;93449.78;;;22.63;58.90
11750;BME280;5932;42.656;23.236;2022-08-19T00:04:17;93444.19;;;22.52;59.22
11750;BME280;5932;42.656;23.236;2022-08-19T00:06:45;93450.44;;;22.47;59.06
11750;BME280;5932;42.656;23.236;2022-08-19T00:09:14;93455.69;;;22.45;59.68
11750;BME280;5932;42.656;23.236;2022-08-19T00:11:43;93449.16;;;22.48;59.09
11750;BME280;5932;42.656;23.236;2022-08-19T00:14:11;93455.41;;;22.43;60.29
11750;BME280;5932;42.656;23.236;2022-08-19T00:16:41;93455.69;;;22.45;61.45
11750;BME280;5932;42.656;23.236;2022-08-19T00:19:08;93468.00;;;22.49;59.37
11750;BME280;5932;42.656;23.236;2022-08-19T00:21:35;93466.72;;;22.45;59.19
11750;BME280;5932;42.656;23.236;2022-08-19T00:24:07;93460.44;;;22.44;59.02
11750;BME280;5932;42.656;23.236;2022-08-19T00:26:34;93465.72;;;22.48;59.01
11750;BME280;5932;42.656;23.236;2022-08-19T00:29:03;93468.50;;;22.48;58.63
11750;BME280;5932;42.656;23.236;2022-08-19T00:31:30;93463.91;;;22.39;59.16
11750;BME280;5932;42.656;23.236;2022-08-19T00:33:57;93432.41;;;22.14;59.34
11750;BME280;5932;42.656;23.236;2022-08-19T00:36:24;93466.94;;;22.41;59.17
11750;BME280;5932;42.656;23.236;2022-08-19T00:38:51;93462.41;;;22.38;59.25
11750;BME280;5932;42.656;23.236;2022-08-19T00:41:20;93455.88;;;22.36;59.99
11750;BME280;5932;42.656;23.236;2022-08-19T00:44:02;93447.06;;;22.32;59.78
11750;BME280;5932;42.656;23.236;2022-08-19T00:46:30;93454.63;;;22.37;59.28
11750;BME280;5932;42.656;23.236;2022-08-19T00:48:58;93451.34;;;22.33;59.69
11750;BME280;5932;42.656;23.236;2022-08-19T00:51:27;93446.31;;;22.31;59.69
11750;BME280;5932;42.656;23.236;2022-08-19T00:53:58;93448.06;;;22.29;61.23
11750;BME280;5932;42.656;23.236;2022-08-19T00:56:26;93443.56;;;22.31;59.88
11750;BME280;5932;42.656;23.236;2022-08-19T00:58:54;93440.00;;;22.25;61.13
11750;BME280;5932;42.656;23.236;2022-08-19T01:01:24;93443.06;;;22.33;59.47
11750;BME280;5932;42.656;23.236;2022-08-19T01:03:51;93446.84;;;22.35;59.52
11750;BME280;5932;42.656;23.236;2022-08-19T01:06:17;93420.88;;;22.16;60.06
11750;BME280;5932;42.656;23.236;2022-08-19T01:08:44;93445.56;;;22.31;59.66
11750;BME280;5932;42.656;23.236;2022-08-19T01:11:11;93442.00;;;22.25;60.17
11750;BME280;5932;42.656;23.236;2022-08-19T01:13:39;93439.97;;;22.20;59.73
11750;BME280;5932;42.656;23.236;2022-08-19T01:16:09;93440.44;;;22.18;60.02
11750;BME280;5932;42.656;23.236;2022-08-19T01:18:40;93441.44;;;22.15;59.29
11750;BME280;5932;42.656;23.236;2022-08-19T01:21:12;93444.22;;;22.21;59.68
11750;BME280;5932;42.656;23.236;2022-08-19T01:23:44;93444.69;;;22.13;59.89
11750;BME280;5932;42.656;23.236;2022-08-19T01:26:14;93439.63;;;22.12;61.81
11750;BME280;5932;42.656;23.236;2022-08-19T01:28:42;93435.91;;;22.15;60.40
11750;BME280;5932;42.656;23.236;2022-08-19T01:31:17;93433.13;;;22.09;60.39
11750;BME280;5932;42.656;23.236;2022-08-19T01:33:46;93435.91;;;22.15;60.35
11750;BME280;5932;42.656;23.236;2022-08-19T01:36:23;93433.66;;;22.13;61.12
11750;BME280;5932;42.656;23.236;2022-08-19T01:38:52;93436.63;;;22.10;61.50
11750;BME280;5932;42.656;23.236;2022-08-19T01:41:19;93445.94;;;22.12;61.74
11750;BME280;5932;42.656;23.236;2022-08-19T01:43:48;93444.19;;;22.15;61.91
11750;BME280;5932;42.656;23.236;2022-08-19T01:46:16;93442.66;;;22.14;64.23
11750;BME280;5932;42.656;23.236;2022-08-19T01:48:43;93432.75;;;21.96;62.81
11750;BME280;5932;42.656;23.236;2022-08-19T01:51:11;93446.09;;;21.98;63.26
11750;BME280;5932;42.656;23.236;2022-08-19T01:53:39;93442.34;;;22.01;65.54
11750;BME280;5932;42.656;23.236;2022-08-19T01:56:08;93434.03;;;21.95;65.59
11750;BME280;5932;42.656;23.236;2022-08-19T01:58:38;93450.56;;;21.95;65.81
11750;BME280;5932;42.656;23.236;2022-08-19T02:01:07;93448.78;;;21.92;63.41
11750;BME280;5932;42.656;23.236;2022-08-19T02:03:34;93449.75;;;21.89;66.27
11750;BME280;5932;42.656;23.236;2022-08-19T02:06:02;93449.47;;;21.82;66.00
11750;BME280;5932;42.656;23.236;2022-08-19T02:08:31;93443.88;;;21.76;64.96
11750;BME280;5932;42.656;23.236;2022-08-19T02:10:59;93438.81;;;21.75;64.90
11750;BME280;5932;42.656;23.236;2022-08-19T02:13:27;93440.31;;;21.70;64.01
11750;BME280;5932;42.656;23.236;2022-08-19T02:15:54;93438.22;;;21.65;63.96
11750;BME280;5932;42.656;23.236;2022-08-19T02:18:21;93444.75;;;21.62;64.76
11750;BME280;5932;42.656;23.236;2022-08-19T02:20:48;93437.91;;;21.58;64.85
11750;BME280;5932;42.656;23.236;2022-08-19T02:23:15;93436.91;;;21.55;63.44
11750;BME280;5932;42.656;23.236;2022-08-19T02:25:43;93443.88;;;21.51;65.52
11750;BME280;5932;42.656;23.236;2022-08-19T02:28:11;93423.25;;;21.41;64.45
11750;BME280;5932;42.656;23.236;2022-08-19T02:30:41;93431.81;;;21.48;64.44
11750;BME280;5932;42.656;23.236;2022-08-19T02:33:08;93437.09;;;21.52;63.88
11750;BME280;5932;42.656;23.236;2022-08-19T02:35:34;93431.81;;;21.48;64.07
11750;BME280;5932;42.656;23.236;2022-08-19T02:38:01;93432.28;;;21.41;63.42
11750;BME280;5932;42.656;23.236;2022-08-19T02:40:49;93427.72;;;21.38;63.83
11750;BME280;5932;42.656;23.236;2022-08-19T02:43:17;93433.00;;;21.42;63.45
11750;BME280;5932;42.656;23.236;2022-08-19T02:45:48;93424.00;;;21.41;63.56
11750;BME280;5932;42.656;23.236;2022-08-19T02:48:15;93431.22;;;21.39;66.17
11750;BME280;5932;42.656;23.236;2022-08-19T02:50:44;93424.97;;;21.38;65.53
11750;BME280;5932;42.656;23.236;2022-08-19T02:53:11;93429.03;;;21.43;66.06
11750;BME280;5932;42.656;23.236;2022-08-19T02:55:44;93428.47;;;21.39;66.02
11750;BME280;5932;42.656;23.236;2022-08-19T02:58:12;93441.97;;;21.37;66.95
11750;BME280;5932;42.656;23.236;2022-08-19T03:00:44;93440.69;;;21.32;67.73
11750;BME280;5932;42.656;23.236;2022-08-19T03:03:13;93439.72;;;21.35;67.89
11750;BME280;5932;42.656;23.236;2022-08-19T03:05:40;93436.69;;;21.33;67.91
11750;BME280;5932;42.656;23.236;2022-08-19T03:08:07;93427.88;;;21.29;67.97
11750;BME280;5932;42.656;23.236;2022-08-19T03:10:40;93439.72;;;21.35;68.43
11750;BME280;5932;42.656;23.236;2022-08-19T03:13:09;93438.41;;;21.31;68.38
11750;BME280;5932;42.656;23.236;2022-08-19T03:15:39;93441.38;;;21.27;67.84
11750;BME280;5932;42.656;23.236;2022-08-19T03:18:06;93439.84;;;21.26;68.77
11750;BME280;5932;42.656;23.236;2022-08-19T03:20:40;93429.06;;;21.22;68.72
11750;BME280;5932;42.656;23.236;2022-08-19T03:23:07;93442.09;;;21.22;68.57
11750;BME280;5932;42.656;23.236;2022-08-19T03:25:37;93444.22;;;21.12;68.69
11750;BME280;5932;42.656;23.236;2022-08-19T03:28:05;93442.19;;;21.07;69.21
11750;BME280;5932;42.656;23.236;2022-08-19T03:30:32;93446.91;;;21.07;69.64
11750;BME280;5932;42.656;23.236;2022-08-19T03:32:59;93444.16;;;21.07;70.43
11750;BME280;5932;42.656;23.236;2022-08-19T03:35:26;93449.81;;;20.98;70.66
11750;BME280;5932;42.656;23.236;2022-08-19T03:37:54;93439.22;;;20.91;70.80
11750;BME280;5932;42.656;23.236;2022-08-19T03:40:21;93444.56;;;20.80;69.66
11750;BME280;5932;42.656;23.236;2022-08-19T03:42:48;93435.69;;;20.70;70.47
11750;BME280;5932;42.656;23.236;2022-08-19T03:45:15;93440.94;;;20.68;69.06
11750;BME280;5932;42.656;23.236;2022-08-19T03:47:42;93446.09;;;20.61;68.73
11750;BME280;5932;42.656;23.236;2022-08-19T03:50:09;93456.13;;;20.64;69.51
11750;BME280;5932;42.656;23.236;2022-08-19T03:52:36;93458.22;;;20.69;68.05
11750;BME280;5932;42.656;23.236;2022-08-19T03:55:05;93463.09;;;20.59;68.51
11750;BME280;5932;42.656;23.236;2022-08-19T03:57:32;93463.72;;;20.69;68.66
11750;BME280;5932;42.656;23.236;2022-08-19T03:59:59;93470.66;;;20.64;67.54
11750;BME280;5932;42.656;23.236;2022-08-19T04:02:27;93474.44;;;20.67;67.59
11750;BME280;5932;42.656;23.236;2022-08-19T04:04:54;93470.66;;;20.64;67.60
11750;BME280;5932;42.656;23.236;2022-08-19T04:07:20;93479.47;;;20.68;67.29
11750;BME280;5932;42.656;23.236;2022-08-19T04:09:47;93468.50;;;20.74;66.55
11750;BME280;5932;42.656;23.236;2022-08-19T04:12:15;93472.31;;;20.76;67.18
11750;BME280;5932;42.656;23.236;2022-08-19T04:14:42;93470.13;;;20.80;66.84
11750;BME280;5932;42.656;23.236;2022-08-19T04:17:09;93470.66;;;20.84;67.33
11750;BME280;5932;42.656;23.236;2022-08-19T04:19:38;93468.03;;;20.95;66.82
11750;BME280;5932;42.656;23.236;2022-08-19T04:22:05;93478.69;;;21.02;67.05
11750;BME280;5932;42.656;23.236;2022-08-19T04:24:32;93479.25;;;21.06;67.53
11750;BME280;5932;42.656;23.236;2022-08-19T04:27:01;93475.50;;;21.09;66.65
11750;BME280;5932;42.656;23.236;2022-08-19T04:29:30;93474.59;;;21.18;66.80
11750;BME280;5932;42.656;23.236;2022-08-19T04:31:57;93481.69;;;21.24;65.30
11750;BME280;5932;42.656;23.236;2022-08-19T04:34:26;93483.25;;;21.31;65.29
11750;BME280;5932;42.656;23.236;2022-08-19T04:36:55;93475.22;;;21.27;66.18
11750;BME280;5932;42.656;23.236;2022-08-19T04:39:25;93474.00;;;21.34;65.73
11750;BME280;5932;42.656;23.236;2022-08-19T04:42:12;93476.59;;;21.38;65.26
11750;BME280;5932;42.656;23.236;2022-08-19T04:44:59;93477.72;;;21.51;66.08
11750;BME280;5932;42.656;23.236;2022-08-19T04:47:26;93482.47;;;21.51;66.77
11750;BME280;5932;42.656;23.236;2022-08-19T04:49:52;93485.28;;;21.56;69.38
11750;BME280;5932;42.656;23.236;2022-08-19T04:52:19;93484.56;;;21.61;68.62
11750;BME280;5932;42.656;23.236;2022-08-19T04:54:46;93478.09;;;21.64;69.42
11750;BME280;5932;42.656;23.236;2022-08-19T04:57:13;93483.38;;;21.68;68.32
11750;BME280;5932;42.656;23.236;2022-08-19T04:59:40;93482.66;;;21.73;68.80
11750;BME280;5932;42.656;23.236;2022-08-19T05:02:09;93483.47;;;21.79;68.05
11750;BME280;5932;42.656;23.236;2022-08-19T05:04:36;93483.56;;;21.84;68.10
11750;BME280;5932;42.656;23.236;2022-08-19T05:07:04;93493.16;;;21.94;68.79
11750;BME280;5932;42.656;23.236;2022-08-19T05:09:31;93493.94;;;21.95;68.76
11750;BME280;5932;42.656;23.236;2022-08-19T05:11:58;93489.97;;;22.01;66.93
11750;BME280;5932;42.656;23.236;2022-08-19T05:14:25;93490.06;;;22.12;68.10
11750;BME280;5932;42.656;23.236;2022-08-19T05:16:52;93501.63;;;22.17;69.04
11750;BME280;5932;42.656;23.236;2022-08-19T05:19:20;93497.19;;;22.25;68.62
11750;BME280;5932;42.656;23.236;2022-08-19T05:22:04;93499.50;;;22.32;68.75
11750;BME280;5932;42.656;23.236;2022-08-19T05:24:48;93497.81;;;22.45;67.76
11750;BME280;5932;42.656;23.236;2022-08-19T05:27:15;93498.63;;;22.51;66.20
11750;BME280;5932;42.656;23.236;2022-08-19T05:29:42;93494.94;;;22.60;65.62
11750;BME280;5932;42.656;23.236;2022-08-19T05:32:09;93506.06;;;22.71;63.70
11750;BME280;5932;42.656;23.236;2022-08-19T05:34:37;93500.31;;;22.74;64.54
11750;BME280;5932;42.656;23.236;2022-08-19T05:37:05;93499.88;;;22.87;64.96
11750;BME280;5932;42.656;23.236;2022-08-19T05:39:35;93500.41;;;22.91;66.57
11750;BME280;5932;42.656;23.236;2022-08-19T05:42:04;93498.44;;;23.02;66.40
11750;BME280;5932;42.656;23.236;2022-08-19T05:44:34;93499.00;;;23.12;65.60
11750;BME280;5932;42.656;23.236;2022-08-19T05:47:04;93499.03;;;23.23;66.37
11750;BME280;5932;42.656;23.236;2022-08-19T05:49:33;93497.31;;;23.31;66.85
11750;BME280;5932;42.656;23.236;2022-08-19T05:52:02;93504.66;;;23.45;66.28
11750;BME280;5932;42.656;23.236;2022-08-19T05:54:30;93500.16;;;23.53;66.50
11750;BME280;5932;42.656;23.236;2022-08-19T05:56:56;93499.22;;;23.67;67.17
11750;BME280;5932;42.656;23.236;2022-08-19T05:59:23;93497.97;;;23.79;65.46
11750;BME280;5932;42.656;23.236;2022-08-19T06:01:52;93496.44;;;23.78;66.66
11750;BME280;5932;42.656;23.236;2022-08-19T06:04:20;93498.72;;;23.85;64.74
11750;BME280;5932;42.656;23.236;2022-08-19T06:06:48;93510.06;;;23.93;64.79
11750;BME280;5932;42.656;23.236;2022-08-19T06:09:17;93504.75;;;23.89;64.96
11750;BME280;5932;42.656;23.236;2022-08-19T06:11:46;93506.03;;;23.94;64.51
11750;BME280;5932;42.656;23.236;2022-08-19T06:14:17;93506.03;;;24.00;63.60
11750;BME280;5932;42.656;23.236;2022-08-19T06:16:46;93500.78;;;24.07;63.87
11750;BME280;5932;42.656;23.236;2022-08-19T06:19:15;93507.59;;;24.17;63.86
11750;BME280;5932;42.656;23.236;2022-08-19T06:21:44;93507.59;;;24.23;63.32
11750;BME280;5932;42.656;23.236;2022-08-19T06:24:15;93503.81;;;24.31;62.82
11750;BME280;5932;42.656;23.236;2022-08-19T06:26:46;93505.59;;;24.45;61.94
11750;BME280;5932;42.656;23.236;2022-08-19T06:29:15;93507.81;;;24.58;62.50
11750;BME280;5932;42.656;23.236;2022-08-19T06:31:44;93507.31;;;24.65;61.12
11750;BME280;5932;42.656;23.236;2022-08-19T06:34:12;93511.84;;;24.73;60.75
11750;BME280;5932;42.656;23.236;2022-08-19T06:36:42;93517.63;;;24.81;60.54
11750;BME280;5932;42.656;23.236;2022-08-19T06:39:11;93514.34;;;24.88;60.67
11750;BME280;5932;42.656;23.236;2022-08-19T06:41:41;93512.56;;;24.96;60.17
11750;BME280;5932;42.656;23.236;2022-08-19T06:44:10;93515.56;;;25.04;60.29
11750;BME280;5932;42.656;23.236;2022-08-19T06:46:39;93507.75;;;25.08;60.08
11750;BME280;5932;42.656;23.236;2022-08-19T06:49:06;93513.53;;;25.15;59.71
11750;BME280;5932;42.656;23.236;2022-08-19T06:51:35;93518.50;;;25.28;58.84
11750;BME280;5932;42.656;23.236;2022-08-19T06:54:03;93521.28;;;25.28;59.53
11750;BME280;5932;42.656;23.236;2022-08-19T06:56:31;93516.97;;;25.38;58.68
11750;BME280;5932;42.656;23.236;2022-08-19T06:59:00;93521.53;;;25.41;59.00
11750;BME280;5932;42.656;23.236;2022-08-19T07:01:28;93524.03;;;25.44;58.46
11750;BME280;5932;42.656;23.236;2022-08-19T07:03:55;93529.56;;;25.50;58.02
11750;BME280;5932;42.656;23.236;2022-08-19T07:06:23;93520.47;;;25.49;57.83
11750;BME280;5932;42.656;23.236;2022-08-19T07:08:49;93525.22;;;25.60;57.79
11750;BME280;5932;42.656;23.236;2022-08-19T07:11:17;93529.25;;;25.65;56.64
11750;BME280;5932;42.656;23.236;2022-08-19T07:13:46;93527.19;;;25.65;57.11
11750;BME280;5932;42.656;23.236;2022-08-19T07:16:17;93524.44;;;25.71;57.92
11750;BME280;5932;42.656;23.236;2022-08-19T07:18:46;93527.13;;;25.82;58.06
11750;BME280;5932;42.656;23.236;2022-08-19T07:21:16;93531.84;;;25.98;57.09
11750;BME280;5932;42.656;23.236;2022-08-19T07:23:43;93533.75;;;26.14;56.61
11750;BME280;5932;42.656;23.236;2022-08-19T07:26:13;93525.13;;;26.23;56.33
11750;BME280;5932;42.656;23.236;2022-08-19T07:28:40;93530.31;;;26.37;55.47
11750;BME280;5932;42.656;23.236;2022-08-19T07:31:10;93535.50;;;26.52;55.93
11750;BME280;5932;42.656;23.236;2022-08-19T07:33:37;93525.06;;;26.64;53.17
11750;BME280;5932;42.656;23.236;2022-08-19T07:36:08;93527.28;;;26.71;53.60
11750;BME280;5932;42.656;23.236;2022-08-19T07:38:37;93520.88;;;26.81;53.64
11750;BME280;5932;42.656;23.236;2022-08-19T07:41:05;93534.94;;;26.89;52.33
11750;BME280;5932;42.656;23.236;2022-08-19T07:43:32;93528.06;;;26.95;52.73
11750;BME280;5932;42.656;23.236;2022-08-19T07:45:58;93532.91;;;27.13;52.64
11750;BME280;5932;42.656;23.236;2022-08-19T07:48:27;93533.09;;;27.21;53.29
11750;BME280;5932;42.656;23.236;2022-08-19T07:50:55;93539.59;;;27.29;51.92
11750;BME280;5932;42.656;23.236;2022-08-19T07:53:24;93531.38;;;27.42;51.45
11750;BME280;5932;42.656;23.236;2022-08-19T07:55:51;93537.56;;;27.54;49.97
11750;BME280;5932;42.656;23.236;2022-08-19T07:58:20;93535.00;;;27.56;50.61
11750;BME280;5932;42.656;23.236;2022-08-19T08:00:50;93542.47;;;27.66;49.70
11750;BME280;5932;42.656;23.236;2022-08-19T08:03:18;93539.38;;;27.70;49.87
11750;BME280;5932;42.656;23.236;2022-08-19T08:05:46;93538.94;;;27.84;49.80
11750;BME280;5932;42.656;23.236;2022-08-19T08:08:32;93545.81;;;28.02;49.11
11750;BME280;5932;42.656;23.236;2022-08-19T08:11:18;93542.16;;;28.12;47.01
11750;BME280;5932;42.656;23.236;2022-08-19T08:13:45;93538.88;;;28.27;48.46
11750;BME280;5932;42.656;23.236;2022-08-19T08:16:13;93536.34;;;28.42;46.59
11750;BME280;5932;42.656;23.236;2022-08-19T08:18:40;93528.34;;;28.52;45.71
11750;BME280;5932;42.656;23.236;2022-08-19T08:21:08;93527.13;;;28.66;42.81
11750;BME280;5932;42.656;23.236;2022-08-19T08:23:36;93526.13;;;28.82;42.74
11750;BME280;5932;42.656;23.236;2022-08-19T08:26:03;93524.97;;;28.90;44.26
11750;BME280;5932;42.656;23.236;2022-08-19T08:28:30;93519.19;;;29.01;41.29
11750;BME280;5932;42.656;23.236;2022-08-19T08:30:58;93522.00;;;29.15;38.86
11750;BME280;5932;42.656;23.236;2022-08-19T08:33:27;93519.03;;;29.26;37.37
11750;BME280;5932;42.656;23.236;2022-08-19T08:35:55;93524.59;;;29.39;37.88
11750;BME280;5932;42.656;23.236;2022-08-19T08:38:22;93523.19;;;29.45;37.46
11750;BME280;5932;42.656;23.236;2022-08-19T08:40:52;93518.16;;;29.57;38.41
11750;BME280;5932;42.656;23.236;2022-08-19T08:43:24;93529.41;;;29.64;36.94
11750;BME280;5932;42.656;23.236;2022-08-19T08:45:59;93509.00;;;29.69;36.66
11750;BME280;5932;42.656;23.236;2022-08-19T08:48:35;93524.03;;;29.79;35.57
11750;BME280;5932;42.656;23.236;2022-08-19T08:51:09;93518.69;;;29.81;33.69
11750;BME280;5932;42.656;23.236;2022-08-19T08:53:36;93521.53;;;30.02;35.42
11750;BME280;5932;42.656;23.236;2022-08-19T08:56:06;93517.94;;;30.15;34.13
11750;BME280;5932;42.656;23.236;2022-08-19T08:58:46;93515.88;;;30.28;34.13
11750;BME280;5932;42.656;23.236;2022-08-19T09:01:14;93515.97;;;30.36;34.67
11750;BME280;5932;42.656;23.236;2022-08-19T09:03:43;93511.41;;;30.46;35.08
11750;BME280;5932;42.656;23.236;2022-08-19T09:06:21;93505.75;;;30.59;34.16
11750;BME280;5932;42.656;23.236;2022-08-19T09:08:57;93505.50;;;30.70;33.47
11750;BME280;5932;42.656;23.236;2022-08-19T09:11:39;93502.00;;;30.77;33.05
11750;BME280;5932;42.656;23.236;2022-08-19T09:14:14;93498.59;;;30.92;34.04
11750;BME280;5932;42.656;23.236;2022-08-19T09:16:45;93508.53;;;31.00;32.48
11750;BME280;5932;42.656;23.236;2022-08-19T09:19:13;93498.72;;;31.07;32.02
11750;BME280;5932;42.656;23.236;2022-08-19T09:21:41;93504.72;;;31.11;32.20
11750;BME280;5932;42.656;23.236;2022-08-19T09:24:07;93501.38;;;31.12;31.84
11750;BME280;5932;42.656;23.236;2022-08-19T09:26:35;93498.06;;;31.21;30.54
11750;BME280;5932;42.656;23.236;2022-08-19T09:29:02;93499.56;;;31.22;30.45
11750;BME280;5932;42.656;23.236;2022-08-19T09:31:31;93494.13;;;31.17;30.87
11750;BME280;5932;42.656;23.236;2022-08-19T09:33:59;93489.25;;;31.17;30.34
11750;BME280;5932;42.656;23.236;2022-08-19T09:36:29;93493.59;;;30.98;30.05
11750;BME280;5932;42.656;23.236;2022-08-19T09:38:58;93491.91;;;30.95;30.87
11750;BME280;5932;42.656;23.236;2022-08-19T09:41:26;93483.25;;;31.13;32.08
11750;BME280;5932;42.656;23.236;2022-08-19T09:43:56;93497.13;;;31.47;31.14
11750;BME280;5932;42.656;23.236;2022-08-19T09:46:25;93494.00;;;31.58;29.18
11750;BME280;5932;42.656;23.236;2022-08-19T09:48:52;93492.97;;;31.76;30.99
11750;BME280;5932;42.656;23.236;2022-08-19T09:51:21;93491.13;;;31.79;29.38
11750;BME280;5932;42.656;23.236;2022-08-19T09:53:50;93494.31;;;31.83;29.48
11750;BME280;5932;42.656;23.236;2022-08-19T09:56:21;93489.69;;;31.85;29.19
11750;BME280;5932;42.656;23.236;2022-08-19T09:58:48;93476.31;;;32.06;29.78
11750;BME280;5932;42.656;23.236;2022-08-19T10:01:18;93488.88;;;32.20;29.52
11750;BME280;5932;42.656;23.236;2022-08-19T10:03:48;93476.94;;;32.27;28.44
11750;BME280;5932;42.656;23.236;2022-08-19T10:06:16;93477.13;;;32.37;27.46
11750;BME280;5932;42.656;23.236;2022-08-19T10:08:43;93476.25;;;32.50;28.49
11750;BME280;5932;42.656;23.236;2022-08-19T10:11:10;93476.47;;;32.59;27.49
11750;BME280;5932;42.656;23.236;2022-08-19T10:13:39;93470.66;;;32.80;27.58
11750;BME280;5932;42.656;23.236;2022-08-19T10:16:08;93466.56;;;32.88;27.24
11750;BME280;5932;42.656;23.236;2022-08-19T10:18:37;93468.06;;;33.12;27.31
11750;BME280;5932;42.656;23.236;2022-08-19T10:21:07;93474.75;;;33.24;25.45
11750;BME280;5932;42.656;23.236;2022-08-19T10:23:35;93466.53;;;33.26;25.39
11750;BME280;5932;42.656;23.236;2022-08-19T10:26:03;93465.25;;;33.19;24.21
11750;BME280;5932;42.656;23.236;2022-08-19T10:28:32;93463.75;;;33.03;24.89
11750;BME280;5932;42.656;23.236;2022-08-19T10:31:03;93458.72;;;33.09;25.68
11750;BME280;5932;42.656;23.236;2022-08-19T10:33:32;93451.22;;;33.12;26.40
11750;BME280;5932;42.656;23.236;2022-08-19T10:36:01;93452.13;;;33.22;26.01
11750;BME280;5932;42.656;23.236;2022-08-19T10:38:28;93459.22;;;33.38;26.06
11750;BME280;5932;42.656;23.236;2022-08-19T10:40:55;93456.19;;;33.51;25.08
11750;BME280;5932;42.656;23.236;2022-08-19T10:43:22;93456.56;;;33.63;25.22
11750;BME280;5932;42.656;23.236;2022-08-19T10:45:54;93455.06;;;33.62;25.33
11750;BME280;5932;42.656;23.236;2022-08-19T10:48:24;93449.75;;;33.73;24.63
11750;BME280;5932;42.656;23.236;2022-08-19T10:50:51;93451.59;;;33.86;25.18
11750;BME280;5932;42.656;23.236;2022-08-19T10:53:36;93458.63;;;34.09;25.47
11750;BME280;5932;42.656;23.236;2022-08-19T10:56:03;93452.22;;;34.17;24.40
11750;BME280;5932;42.656;23.236;2022-08-19T10:58:56;93449.53;;;34.26;24.37
11750;BME280;5932;42.656;23.236;2022-08-19T11:01:24;93453.81;;;34.35;23.60
11750;BME280;5932;42.656;23.236;2022-08-19T11:03:50;93455.50;;;34.30;23.83
11750;BME280;5932;42.656;23.236;2022-08-19T11:06:18;93447.78;;;34.38;25.10
11750;BME280;5932;42.656;23.236;2022-08-19T11:08:47;93438.59;;;34.38;23.91
11750;BME280;5932;42.656;23.236;2022-08-19T11:11:13;93446.03;;;34.50;24.54
11750;BME280;5932;42.656;23.236;2022-08-19T11:13:41;93439.59;;;34.57;24.73
11750;BME280;5932;42.656;23.236;2022-08-19T11:16:09;93439.75;;;34.84;24.72
11750;BME280;5932;42.656;23.236;2022-08-19T11:18:41;93435.06;;;34.86;23.87
11750;BME280;5932;42.656;23.236;2022-08-19T11:21:10;93431.50;;;34.86;22.94
11750;BME280;5932;42.656;23.236;2022-08-19T11:23:37;93444.84;;;34.85;22.66
11750;BME280;5932;42.656;23.236;2022-08-19T11:26:07;93438.88;;;34.81;23.92
11750;BME280;5932;42.656;23.236;2022-08-19T11:28:34;93435.19;;;34.96;23.34
11750;BME280;5932;42.656;23.236;2022-08-19T11:31:03;93440.28;;;35.15;23.88
11750;BME280;5932;42.656;23.236;2022-08-19T11:33:30;93432.78;;;35.34;23.63
11750;BME280;5932;42.656;23.236;2022-08-19T11:35:58;93418.72;;;35.51;23.26
11750;BME280;5932;42.656;23.236;2022-08-19T11:38:26;93415.69;;;35.66;23.46
11750;BME280;5932;42.656;23.236;2022-08-19T11:40:56;93420.34;;;35.54;23.62
11750;BME280;5932;42.656;23.236;2022-08-19T11:43:24;93419.38;;;35.59;22.53
11750;BME280;5932;42.656;23.236;2022-08-19T11:45:52;93416.81;;;35.54;23.01
11750;BME280;5932;42.656;23.236;2022-08-19T11:48:19;93425.25;;;35.71;22.74
11750;BME280;5932;42.656;23.236;2022-08-19T11:50:47;93424.88;;;35.84;23.46
11750;BME280;5932;42.656;23.236;2022-08-19T11:53:14;93418.41;;;35.91;23.47
11750;BME280;5932;42.656;23.236;2022-08-19T11:55:41;93417.22;;;36.11;22.64
11750;BME280;5932;42.656;23.236;2022-08-19T11:58:08;93415.53;;;35.99;21.85
11750;BME280;5932;42.656;23.236;2022-08-19T12:00:38;93412.06;;;36.17;22.01
11750;BME280;5932;42.656;23.236;2022-08-19T12:03:05;93414.66;;;36.32;22.08
11750;BME280;5932;42.656;23.236;2022-08-19T12:05:32;93410.63;;;36.52;22.21
11750;BME280;5932;42.656;23.236;2022-08-19T12:07:58;93409.28;;;36.53;22.17
11750;BME280;5932;42.656;23.236;2022-08-19T12:10:25;93406.63;;;36.29;21.67
11750;BME280;5932;42.656;23.236;2022-08-19T12:12:52;93394.38;;;36.17;22.50
11750;BME280;5932;42.656;23.236;2022-08-19T12:15:19;93396.41;;;36.33;22.17
11750;BME280;5932;42.656;23.236;2022-08-19T12:17:47;93396.53;;;36.26;22.43
11750;BME280;5932;42.656;23.236;2022-08-19T12:20:15;93381.50;;;36.23;22.31
11750;BME280;5932;42.656;23.236;2022-08-19T12:22:42;93384.19;;;36.21;22.68
11750;BME280;5932;42.656;23.236;2022-08-19T12:25:10;93382.59;;;36.28;22.58
11750;BME280;5932;42.656;23.236;2022-08-19T12:27:38;93374.44;;;36.32;22.84
11750;BME280;5932;42.656;23.236;2022-08-19T12:30:07;93373.16;;;36.42;22.86
11750;BME280;5932;42.656;23.236;2022-08-19T12:32:34;93377.88;;;36.67;22.03
11750;BME280;5932;42.656;23.236;2022-08-19T12:35:03;93373.81;;;36.96;22.19
11750;BME280;5932;42.656;23.236;2022-08-19T12:37:29;93377.66;;;37.01;21.73
11750;BME280;5932;42.656;23.236;2022-08-19T12:39:57;93369.38;;;37.22;22.56
11750;BME280;5932;42.656;23.236;2022-08-19T12:42:24;93369.56;;;37.33;22.41
11750;BME280;5932;42.656;23.236;2022-08-19T12:44:51;93366.91;;;37.45;21.57
11750;BME280;5932;42.656;23.236;2022-08-19T12:47:18;93359.72;;;37.63;21.50
11750;BME280;5932;42.656;23.236;2022-08-19T12:49:46;93363.47;;;37.85;21.21
11750;BME280;5932;42.656;23.236;2022-08-19T12:52:15;93361.19;;;38.02;21.21
11750;BME280;5932;42.656;23.236;2022-08-19T12:54:46;93353.13;;;38.08;21.53
11750;BME280;5932;42.656;23.236;2022-08-19T12:57:13;93361.41;;;38.35;20.72
11750;BME280;5932;42.656;23.236;2022-08-19T12:59:40;93360.09;;;38.36;20.38
11750;BME280;5932;42.656;23.236;2022-08-19T13:02:08;93352.91;;;38.35;20.81
11750;BME280;5932;42.656;23.236;2022-08-19T13:04:35;93359.84;;;38.53;20.38
11750;BME280;5932;42.656;23.236;2022-08-19T13:07:06;93350.44;;;38.70;20.89
11750;BME280;5932;42.656;23.236;2022-08-19T13:09:34;93350.16;;;38.66;20.58